sensor_id;sensor_type;location;lat;lon;timestamp;P1;durP1;ratioP1;P2;durP2;ratioP2
26686;SDS011;14298;50.900;4.648;2024-02-26T00:00:04;1.30;;;0.77;;
26686;SDS011;14298;50.900;4.648;2024-02-26T00:02:35;0.50;;;0.50;;
26686;SDS011;14298;50.900;4.648;2024-02-26T00:05:05;0.57;;;0.57;;
26686;SDS011;14298;50.900;4.648;2024-02-26T00:07:33;0.60;;;0.60;;
26686;SDS011;14298;50.900;4.648;2024-02-26T00:12:49;0.70;;;0.70;;
26686;SDS011;14298;50.900;4.648;2024-02-26T00:15:17;1.20;;;1.03;;
26686;SDS011;14298;50.900;4.648;2024-02-26T00:17:45;2.90;;;0.73;;
26686;SDS011;14298;50.900;4.648;2024-02-26T00:20:13;0.60;;;0.60;;
26686;SDS011;14298;50.900;4.648;2024-02-26T00:22:41;0.60;;;0.60;;
26686;SDS011;14298;50.900;4.648;2024-02-26T00:25:09;0.60;;;0.60;;
26686;SDS011;14298;50.900;4.648;2024-02-26T00:27:39;0.50;;;0.50;;
26686;SDS011;14298;50.900;4.648;2024-02-26T00:30:08;0.60;;;0.60;;
26686;SDS011;14298;50.900;4.648;2024-02-26T00:32:36;0.40;;;0.40;;
26686;SDS011;14298;50.900;4.648;2024-02-26T00:35:04;1.70;;;0.90;;
26686;SDS011;14298;50.900;4.648;2024-02-26T00:37:33;1.40;;;0.50;;
26686;SDS011;14298;50.900;4.648;2024-02-26T00:40:00;0.73;;;0.73;;
26686;SDS011;14298;50.900;4.648;2024-02-26T00:42:28;0.50;;;0.50;;
26686;SDS011;14298;50.900;4.648;2024-02-26T00:44:57;0.50;;;0.50;;
26686;SDS011;14298;50.900;4.648;2024-02-26T00:47:25;0.80;;;0.80;;
26686;SDS011;14298;50.900;4.648;2024-02-26T00:49:53;0.73;;;0.73;;
26686;SDS011;14298;50.900;4.648;2024-02-26T00:52:21;0.43;;;0.43;;
26686;SDS011;14298;50.900;4.648;2024-02-26T00:54:49;0.83;;;0.83;;
26686;SDS011;14298;50.900;4.648;2024-02-26T00:57:17;0.60;;;0.60;;
26686;SDS011;14298;50.900;4.648;2024-02-26T00:59:45;1.47;;;0.83;;
26686;SDS011;14298;50.900;4.648;2024-02-26T01:02:13;1.20;;;0.80;;
26686;SDS011;14298;50.900;4.648;2024-02-26T01:04:41;1.33;;;1.23;;
26686;SDS011;14298;50.900;4.648;2024-02-26T01:07:09;0.77;;;0.77;;
26686;SDS011;14298;50.900;4.648;2024-02-26T01:09:37;4.77;;;1.20;;
26686;SDS011;14298;50.900;4.648;2024-02-26T01:12:05;0.77;;;0.77;;
26686;SDS011;14298;50.900;4.648;2024-02-26T01:14:33;0.60;;;0.60;;
26686;SDS011;14298;50.900;4.648;2024-02-26T01:17:01;0.63;;;0.63;;
26686;SDS011;14298;50.900;4.648;2024-02-26T01:19:29;1.30;;;1.30;;
26686;SDS011;14298;50.900;4.648;2024-02-26T01:21:57;1.00;;;1.00;;
26686;SDS011;14298;50.900;4.648;2024-02-26T01:24:25;0.60;;;0.60;;
26686;SDS011;14298;50.900;4.648;2024-02-26T01:26:54;0.77;;;0.77;;
26686;SDS011;14298;50.900;4.648;2024-02-26T01:29:22;0.87;;;0.87;;
26686;SDS011;14298;50.900;4.648;2024-02-26T01:31:50;0.90;;;0.90;;
26686;SDS011;14298;50.900;4.648;2024-02-26T01:34:18;0.60;;;0.60;;
26686;SDS011;14298;50.900;4.648;2024-02-26T01:36:46;0.70;;;0.70;;
26686;SDS011;14298;50.900;4.648;2024-02-26T01:39:14;0.57;;;0.57;;
26686;SDS011;14298;50.900;4.648;2024-02-26T01:41:42;0.80;;;0.80;;
26686;SDS011;14298;50.900;4.648;2024-02-26T01:44:15;0.50;;;0.50;;
26686;SDS011;14298;50.900;4.648;2024-02-26T01:46:41;0.60;;;0.60;;
26686;SDS011;14298;50.900;4.648;2024-02-26T01:49:11;0.77;;;0.77;;
26686;SDS011;14298;50.900;4.648;2024-02-26T01:51:40;0.40;;;0.40;;
26686;SDS011;14298;50.900;4.648;2024-02-26T01:54:09;1.27;;;1.20;;
26686;SDS011;14298;50.900;4.648;2024-02-26T01:56:37;0.43;;;0.43;;
26686;SDS011;14298;50.900;4.648;2024-02-26T01:59:06;0.60;;;0.60;;
26686;SDS011;14298;50.900;4.648;2024-02-26T02:01:36;0.40;;;0.40;;
26686;SDS011;14298;50.900;4.648;2024-02-26T02:04:04;0.50;;;0.50;;
26686;SDS011;14298;50.900;4.648;2024-02-26T02:06:32;0.53;;;0.53;;
26686;SDS011;14298;50.900;4.648;2024-02-26T02:09:00;2.13;;;0.77;;
26686;SDS011;14298;50.900;4.648;2024-02-26T02:11:30;0.50;;;0.50;;
26686;SDS011;14298;50.900;4.648;2024-02-26T02:13:58;0.77;;;0.60;;
26686;SDS011;14298;50.900;4.648;2024-02-26T02:16:26;0.70;;;0.70;;
26686;SDS011;14298;50.900;4.648;2024-02-26T02:18:54;0.30;;;0.30;;
26686;SDS011;14298;50.900;4.648;2024-02-26T02:21:22;0.70;;;0.70;;
26686;SDS011;14298;50.900;4.648;2024-02-26T02:23:50;2.93;;;1.17;;
26686;SDS011;14298;50.900;4.648;2024-02-26T02:26:18;0.70;;;0.70;;
26686;SDS011;14298;50.900;4.648;2024-02-26T02:28:46;0.53;;;0.53;;
26686;SDS011;14298;50.900;4.648;2024-02-26T02:31:15;0.47;;;0.47;;
26686;SDS011;14298;50.900;4.648;2024-02-26T02:33:44;0.40;;;0.40;;
26686;SDS011;14298;50.900;4.648;2024-02-26T02:36:12;0.77;;;0.77;;
26686;SDS011;14298;50.900;4.648;2024-02-26T02:38:48;0.50;;;0.50;;
26686;SDS011;14298;50.900;4.648;2024-02-26T02:41:09;0.50;;;0.50;;
26686;SDS011;14298;50.900;4.648;2024-02-26T02:43:37;0.63;;;0.63;;
26686;SDS011;14298;50.900;4.648;2024-02-26T02:46:05;0.43;;;0.43;;
26686;SDS011;14298;50.900;4.648;2024-02-26T02:48:33;0.40;;;0.40;;
26686;SDS011;14298;50.900;4.648;2024-02-26T02:51:01;1.10;;;1.00;;
26686;SDS011;14298;50.900;4.648;2024-02-26T02:53:29;0.57;;;0.57;;
26686;SDS011;14298;50.900;4.648;2024-02-26T02:55:57;0.50;;;0.50;;
26686;SDS011;14298;50.900;4.648;2024-02-26T02:58:25;0.30;;;0.30;;
26686;SDS011;14298;50.900;4.648;2024-02-26T03:00:53;0.50;;;0.50;;
26686;SDS011;14298;50.900;4.648;2024-02-26T03:06:09;0.40;;;0.40;;
26686;SDS011;14298;50.900;4.648;2024-02-26T03:08:37;0.77;;;0.77;;
26686;SDS011;14298;50.900;4.648;2024-02-26T03:11:06;0.53;;;0.53;;
26686;SDS011;14298;50.900;4.648;2024-02-26T03:13:34;0.40;;;0.40;;
26686;SDS011;14298;50.900;4.648;2024-02-26T03:16:06;0.57;;;0.57;;
26686;SDS011;14298;50.900;4.648;2024-02-26T03:18:34;1.43;;;0.63;;
26686;SDS011;14298;50.900;4.648;2024-02-26T03:23:51;0.40;;;0.40;;
26686;SDS011;14298;50.900;4.648;2024-02-26T03:26:19;0.60;;;0.60;;
26686;SDS011;14298;50.900;4.648;2024-02-26T03:28:48;0.87;;;0.87;;
26686;SDS011;14298;50.900;4.648;2024-02-26T03:31:16;0.60;;;0.60;;
26686;SDS011;14298;50.900;4.648;2024-02-26T03:33:44;0.80;;;0.80;;
26686;SDS011;14298;50.900;4.648;2024-02-26T03:36:12;1.07;;;0.97;;
26686;SDS011;14298;50.900;4.648;2024-02-26T03:38:40;1.30;;;1.20;;
26686;SDS011;14298;50.900;4.648;2024-02-26T03:41:08;1.00;;;1.00;;
26686;SDS011;14298;50.900;4.648;2024-02-26T03:43:36;0.83;;;0.83;;
26686;SDS011;14298;50.900;4.648;2024-02-26T03:48:57;0.97;;;0.97;;
26686;SDS011;14298;50.900;4.648;2024-02-26T03:51:25;0.80;;;0.80;;
26686;SDS011;14298;50.900;4.648;2024-02-26T03:53:55;1.23;;;1.20;;
26686;SDS011;14298;50.900;4.648;2024-02-26T03:56:23;0.87;;;0.87;;
26686;SDS011;14298;50.900;4.648;2024-02-26T03:58:51;1.70;;;1.27;;
26686;SDS011;14298;50.900;4.648;2024-02-26T04:04:06;1.17;;;1.17;;
26686;SDS011;14298;50.900;4.648;2024-02-26T04:06:34;0.90;;;0.90;;
26686;SDS011;14298;50.900;4.648;2024-02-26T04:09:02;0.80;;;0.80;;
26686;SDS011;14298;50.900;4.648;2024-02-26T04:11:30;0.97;;;0.97;;
26686;SDS011;14298;50.900;4.648;2024-02-26T04:13:58;5.30;;;0.80;;
26686;SDS011;14298;50.900;4.648;2024-02-26T04:19:15;0.80;;;0.80;;
26686;SDS011;14298;50.900;4.648;2024-02-26T04:21:43;1.03;;;1.03;;
26686;SDS011;14298;50.900;4.648;2024-02-26T04:24:11;0.97;;;0.97;;
26686;SDS011;14298;50.900;4.648;2024-02-26T04:26:39;0.70;;;0.70;;
26686;SDS011;14298;50.900;4.648;2024-02-26T04:29:07;1.10;;;0.83;;
26686;SDS011;14298;50.900;4.648;2024-02-26T04:31:37;1.30;;;1.20;;
26686;SDS011;14298;50.900;4.648;2024-02-26T04:34:05;0.80;;;0.80;;
26686;SDS011;14298;50.900;4.648;2024-02-26T04:36:33;0.80;;;0.80;;
26686;SDS011;14298;50.900;4.648;2024-02-26T04:44:42;1.17;;;1.17;;
26686;SDS011;14298;50.900;4.648;2024-02-26T04:47:10;1.33;;;1.23;;
26686;SDS011;14298;50.900;4.648;2024-02-26T04:49:38;1.47;;;1.37;;
26686;SDS011;14298;50.900;4.648;2024-02-26T04:52:06;0.60;;;0.60;;
26686;SDS011;14298;50.900;4.648;2024-02-26T04:54:34;1.37;;;1.33;;
26686;SDS011;14298;50.900;4.648;2024-02-26T04:57:02;1.47;;;1.40;;
26686;SDS011;14298;50.900;4.648;2024-02-26T04:59:30;1.57;;;1.47;;
26686;SDS011;14298;50.900;4.648;2024-02-26T05:04:45;1.43;;;1.33;;
26686;SDS011;14298;50.900;4.648;2024-02-26T05:07:14;1.93;;;1.83;;
26686;SDS011;14298;50.900;4.648;2024-02-26T05:09:44;5.87;;;2.27;;
26686;SDS011;14298;50.900;4.648;2024-02-26T05:12:12;2.37;;;1.47;;
26686;SDS011;14298;50.900;4.648;2024-02-26T05:14:40;1.77;;;1.67;;
26686;SDS011;14298;50.900;4.648;2024-02-26T05:17:09;2.17;;;2.07;;
26686;SDS011;14298;50.900;4.648;2024-02-26T05:19:37;2.00;;;1.90;;
26686;SDS011;14298;50.900;4.648;2024-02-26T05:22:05;3.23;;;3.03;;
26686;SDS011;14298;50.900;4.648;2024-02-26T05:24:33;1.93;;;1.83;;
26686;SDS011;14298;50.900;4.648;2024-02-26T05:27:01;5.77;;;2.57;;
26686;SDS011;14298;50.900;4.648;2024-02-26T05:29:29;4.17;;;2.40;;
26686;SDS011;14298;50.900;4.648;2024-02-26T05:31:57;2.50;;;2.03;;
26686;SDS011;14298;50.900;4.648;2024-02-26T05:34:25;2.23;;;2.13;;
26686;SDS011;14298;50.900;4.648;2024-02-26T05:36:53;3.13;;;2.83;;
26686;SDS011;14298;50.900;4.648;2024-02-26T05:39:21;2.60;;;2.47;;
26686;SDS011;14298;50.900;4.648;2024-02-26T05:41:49;2.87;;;2.67;;
26686;SDS011;14298;50.900;4.648;2024-02-26T05:44:17;4.23;;;3.60;;
26686;SDS011;14298;50.900;4.648;2024-02-26T05:46:46;3.80;;;2.80;;
26686;SDS011;14298;50.900;4.648;2024-02-26T05:49:14;2.60;;;2.43;;
26686;SDS011;14298;50.900;4.648;2024-02-26T05:51:42;2.33;;;2.23;;
26686;SDS011;14298;50.900;4.648;2024-02-26T05:54:10;3.93;;;3.13;;
26686;SDS011;14298;50.900;4.648;2024-02-26T05:56:38;8.80;;;4.17;;
26686;SDS011;14298;50.900;4.648;2024-02-26T05:59:06;3.50;;;3.20;;
26686;SDS011;14298;50.900;4.648;2024-02-26T06:01:34;3.87;;;3.57;;
26686;SDS011;14298;50.900;4.648;2024-02-26T06:06:49;2.57;;;2.40;;
26686;SDS011;14298;50.900;4.648;2024-02-26T06:09:17;3.47;;;3.17;;
26686;SDS011;14298;50.900;4.648;2024-02-26T06:11:45;1.93;;;1.83;;
26686;SDS011;14298;50.900;4.648;2024-02-26T06:14:13;3.20;;;3.00;;
26686;SDS011;14298;50.900;4.648;2024-02-26T06:16:43;3.20;;;3.00;;
26686;SDS011;14298;50.900;4.648;2024-02-26T06:19:11;2.50;;;2.30;;
26686;SDS011;14298;50.900;4.648;2024-02-26T06:21:39;2.33;;;2.23;;
26686;SDS011;14298;50.900;4.648;2024-02-26T06:24:07;2.90;;;2.67;;
26686;SDS011;14298;50.900;4.648;2024-02-26T06:26:35;3.50;;;3.30;;
26686;SDS011;14298;50.900;4.648;2024-02-26T06:29:03;3.57;;;3.27;;
26686;SDS011;14298;50.900;4.648;2024-02-26T06:31:31;2.93;;;2.73;;
26686;SDS011;14298;50.900;4.648;2024-02-26T06:33:59;3.53;;;3.23;;
26686;SDS011;14298;50.900;4.648;2024-02-26T06:36:27;3.27;;;3.00;;
26686;SDS011;14298;50.900;4.648;2024-02-26T06:38:55;3.27;;;3.07;;
26686;SDS011;14298;50.900;4.648;2024-02-26T06:41:23;2.93;;;2.53;;
26686;SDS011;14298;50.900;4.648;2024-02-26T06:43:55;16.60;;;3.00;;
26686;SDS011;14298;50.900;4.648;2024-02-26T06:46:23;3.17;;;2.90;;
26686;SDS011;14298;50.900;4.648;2024-02-26T06:48:52;3.07;;;2.87;;
26686;SDS011;14298;50.900;4.648;2024-02-26T06:57:01;3.07;;;2.87;;
26686;SDS011;14298;50.900;4.648;2024-02-26T06:59:29;3.60;;;3.33;;
26686;SDS011;14298;50.900;4.648;2024-02-26T07:01:56;3.33;;;3.10;;
26686;SDS011;14298;50.900;4.648;2024-02-26T07:04:25;3.33;;;3.03;;
26686;SDS011;14298;50.900;4.648;2024-02-26T07:06:53;2.43;;;2.23;;
26686;SDS011;14298;50.900;4.648;2024-02-26T07:09:21;2.43;;;2.23;;
26686;SDS011;14298;50.900;4.648;2024-02-26T07:11:48;3.13;;;2.93;;
26686;SDS011;14298;50.900;4.648;2024-02-26T07:14:16;2.83;;;2.63;;
26686;SDS011;14298;50.900;4.648;2024-02-26T07:16:44;3.13;;;2.93;;
26686;SDS011;14298;50.900;4.648;2024-02-26T07:19:12;3.40;;;3.20;;
26686;SDS011;14298;50.900;4.648;2024-02-26T07:21:40;5.27;;;2.80;;
26686;SDS011;14298;50.900;4.648;2024-02-26T07:24:08;4.63;;;3.20;;
26686;SDS011;14298;50.900;4.648;2024-02-26T07:26:36;3.03;;;2.80;;
26686;SDS011;14298;50.900;4.648;2024-02-26T07:29:04;2.77;;;2.63;;
26686;SDS011;14298;50.900;4.648;2024-02-26T07:31:32;3.37;;;3.07;;
26686;SDS011;14298;50.900;4.648;2024-02-26T07:34:00;3.93;;;3.63;;
26686;SDS011;14298;50.900;4.648;2024-02-26T07:36:28;3.03;;;2.77;;
26686;SDS011;14298;50.900;4.648;2024-02-26T07:38:56;3.27;;;3.00;;
26686;SDS011;14298;50.900;4.648;2024-02-26T07:41:24;3.40;;;3.10;;
26686;SDS011;14298;50.900;4.648;2024-02-26T07:43:52;3.50;;;3.27;;
26686;SDS011;14298;50.900;4.648;2024-02-26T07:46:20;4.43;;;4.13;;
26686;SDS011;14298;50.900;4.648;2024-02-26T07:48:48;1.60;;;1.53;;
26686;SDS011;14298;50.900;4.648;2024-02-26T07:51:16;3.63;;;3.33;;
26686;SDS011;14298;50.900;4.648;2024-02-26T07:53:44;3.60;;;3.30;;
26686;SDS011;14298;50.900;4.648;2024-02-26T07:56:12;2.50;;;2.37;;
26686;SDS011;14298;50.900;4.648;2024-02-26T07:58:40;3.40;;;3.10;;
26686;SDS011;14298;50.900;4.648;2024-02-26T08:01:08;3.53;;;3.20;;
26686;SDS011;14298;50.900;4.648;2024-02-26T08:03:37;2.87;;;2.67;;
26686;SDS011;14298;50.900;4.648;2024-02-26T08:08:54;2.67;;;2.47;;
26686;SDS011;14298;50.900;4.648;2024-02-26T08:11:22;3.43;;;3.23;;
26686;SDS011;14298;50.900;4.648;2024-02-26T08:13:50;4.13;;;3.73;;
26686;SDS011;14298;50.900;4.648;2024-02-26T08:19:05;3.23;;;2.93;;
26686;SDS011;14298;50.900;4.648;2024-02-26T08:21:33;4.43;;;3.30;;
26686;SDS011;14298;50.900;4.648;2024-02-26T08:24:01;1.70;;;1.60;;
26686;SDS011;14298;50.900;4.648;2024-02-26T08:26:29;3.23;;;2.93;;
26686;SDS011;14298;50.900;4.648;2024-02-26T08:28:57;3.37;;;3.07;;
26686;SDS011;14298;50.900;4.648;2024-02-26T08:31:25;3.07;;;2.80;;
26686;SDS011;14298;50.900;4.648;2024-02-26T08:33:54;3.33;;;3.03;;
26686;SDS011;14298;50.900;4.648;2024-02-26T08:36:22;4.00;;;3.60;;
26686;SDS011;14298;50.900;4.648;2024-02-26T08:38:50;2.17;;;1.80;;
26686;SDS011;14298;50.900;4.648;2024-02-26T08:41:18;3.07;;;2.87;;
26686;SDS011;14298;50.900;4.648;2024-02-26T08:43:46;2.53;;;2.40;;
26686;SDS011;14298;50.900;4.648;2024-02-26T08:46:14;3.50;;;2.60;;
26686;SDS011;14298;50.900;4.648;2024-02-26T08:48:42;2.57;;;2.37;;
26686;SDS011;14298;50.900;4.648;2024-02-26T08:51:10;3.47;;;3.17;;
26686;SDS011;14298;50.900;4.648;2024-02-26T08:53:38;2.53;;;2.33;;
26686;SDS011;14298;50.900;4.648;2024-02-26T08:56:06;3.47;;;3.27;;
26686;SDS011;14298;50.900;4.648;2024-02-26T08:58:34;2.77;;;2.57;;
26686;SDS011;14298;50.900;4.648;2024-02-26T09:01:03;6.17;;;3.80;;
26686;SDS011;14298;50.900;4.648;2024-02-26T09:03:31;2.57;;;2.37;;
26686;SDS011;14298;50.900;4.648;2024-02-26T09:05:59;3.00;;;2.80;;
26686;SDS011;14298;50.900;4.648;2024-02-26T09:08:27;3.03;;;2.73;;
26686;SDS011;14298;50.900;4.648;2024-02-26T09:10:55;2.87;;;2.67;;
26686;SDS011;14298;50.900;4.648;2024-02-26T09:13:23;3.47;;;2.23;;
26686;SDS011;14298;50.900;4.648;2024-02-26T09:15:51;3.00;;;2.77;;
26686;SDS011;14298;50.900;4.648;2024-02-26T09:18:19;3.60;;;3.30;;
26686;SDS011;14298;50.900;4.648;2024-02-26T09:20:47;3.50;;;3.20;;
26686;SDS011;14298;50.900;4.648;2024-02-26T09:23:15;3.00;;;2.80;;
26686;SDS011;14298;50.900;4.648;2024-02-26T09:25:43;2.37;;;2.27;;
26686;SDS011;14298;50.900;4.648;2024-02-26T09:28:11;3.67;;;3.37;;
26686;SDS011;14298;50.900;4.648;2024-02-26T09:30:39;2.90;;;2.30;;
26686;SDS011;14298;50.900;4.648;2024-02-26T09:33:07;2.50;;;2.37;;
26686;SDS011;14298;50.900;4.648;2024-02-26T09:35:36;2.83;;;2.67;;
26686;SDS011;14298;50.900;4.648;2024-02-26T09:38:04;4.30;;;3.17;;
26686;SDS011;14298;50.900;4.648;2024-02-26T09:40:32;3.03;;;2.77;;
26686;SDS011;14298;50.900;4.648;2024-02-26T09:43:00;3.20;;;3.00;;
26686;SDS011;14298;50.900;4.648;2024-02-26T09:45:29;2.67;;;2.53;;
26686;SDS011;14298;50.900;4.648;2024-02-26T09:47:58;2.13;;;2.03;;
26686;SDS011;14298;50.900;4.648;2024-02-26T09:50:26;3.13;;;2.83;;
26686;SDS011;14298;50.900;4.648;2024-02-26T09:52:54;2.50;;;2.30;;
26686;SDS011;14298;50.900;4.648;2024-02-26T09:55:24;4.30;;;3.83;;
26686;SDS011;14298;50.900;4.648;2024-02-26T09:57:52;2.80;;;2.60;;
26686;SDS011;14298;50.900;4.648;2024-02-26T10:00:21;3.10;;;2.83;;
26686;SDS011;14298;50.900;4.648;2024-02-26T10:02:49;3.47;;;3.20;;
26686;SDS011;14298;50.900;4.648;2024-02-26T10:05:19;3.07;;;2.80;;
26686;SDS011;14298;50.900;4.648;2024-02-26T10:07:47;2.63;;;2.43;;
26686;SDS011;14298;50.900;4.648;2024-02-26T10:10:15;2.53;;;2.37;;
26686;SDS011;14298;50.900;4.648;2024-02-26T10:12:43;2.40;;;2.30;;
26686;SDS011;14298;50.900;4.648;2024-02-26T10:15:11;2.33;;;1.63;;
26686;SDS011;14298;50.900;4.648;2024-02-26T10:17:39;2.13;;;1.83;;
26686;SDS011;14298;50.900;4.648;2024-02-26T10:20:16;2.70;;;2.47;;
26686;SDS011;14298;50.900;4.648;2024-02-26T10:22:52;2.23;;;2.03;;
26686;SDS011;14298;50.900;4.648;2024-02-26T10:25:20;3.53;;;2.93;;
26686;SDS011;14298;50.900;4.648;2024-02-26T10:27:48;4.20;;;2.83;;
26686;SDS011;14298;50.900;4.648;2024-02-26T10:30:17;2.70;;;2.57;;
26686;SDS011;14298;50.900;4.648;2024-02-26T10:32:45;2.17;;;2.07;;
26686;SDS011;14298;50.900;4.648;2024-02-26T10:35:14;2.67;;;2.30;;
26686;SDS011;14298;50.900;4.648;2024-02-26T10:37:42;2.33;;;2.17;;
26686;SDS011;14298;50.900;4.648;2024-02-26T10:40:11;3.40;;;3.13;;
26686;SDS011;14298;50.900;4.648;2024-02-26T10:42:40;3.97;;;3.60;;
26686;SDS011;14298;50.900;4.648;2024-02-26T10:45:08;2.10;;;2.00;;
26686;SDS011;14298;50.900;4.648;2024-02-26T10:47:37;2.77;;;2.63;;
26686;SDS011;14298;50.900;4.648;2024-02-26T10:50:05;2.73;;;2.53;;
26686;SDS011;14298;50.900;4.648;2024-02-26T10:58:08;3.23;;;3.03;;
26686;SDS011;14298;50.900;4.648;2024-02-26T11:00:37;2.73;;;2.63;;
26686;SDS011;14298;50.900;4.648;2024-02-26T11:03:05;2.13;;;2.03;;
26686;SDS011;14298;50.900;4.648;2024-02-26T11:05:34;3.37;;;3.17;;
26686;SDS011;14298;50.900;4.648;2024-02-26T11:08:04;3.93;;;3.63;;
26686;SDS011;14298;50.900;4.648;2024-02-26T11:10:53;2.83;;;2.63;;
26686;SDS011;14298;50.900;4.648;2024-02-26T11:13:26;2.60;;;2.50;;
26686;SDS011;14298;50.900;4.648;2024-02-26T11:15:54;3.70;;;3.50;;
26686;SDS011;14298;50.900;4.648;2024-02-26T11:18:24;2.57;;;2.47;;
26686;SDS011;14298;50.900;4.648;2024-02-26T11:20:54;3.17;;;2.97;;
26686;SDS011;14298;50.900;4.648;2024-02-26T11:23:24;3.27;;;3.07;;
26686;SDS011;14298;50.900;4.648;2024-02-26T11:28:39;3.07;;;2.87;;
26686;SDS011;14298;50.900;4.648;2024-02-26T11:31:08;2.83;;;2.73;;
26686;SDS011;14298;50.900;4.648;2024-02-26T11:33:37;2.43;;;2.27;;
26686;SDS011;14298;50.900;4.648;2024-02-26T11:36:08;3.13;;;2.93;;
26686;SDS011;14298;50.900;4.648;2024-02-26T11:38:57;2.47;;;2.30;;
26686;SDS011;14298;50.900;4.648;2024-02-26T11:41:25;2.63;;;2.53;;
26686;SDS011;14298;50.900;4.648;2024-02-26T11:43:53;3.37;;;3.17;;
26686;SDS011;14298;50.900;4.648;2024-02-26T11:46:32;3.80;;;3.57;;
26686;SDS011;14298;50.900;4.648;2024-02-26T11:49:01;3.33;;;3.13;;
26686;SDS011;14298;50.900;4.648;2024-02-26T11:51:33;2.33;;;2.23;;
26686;SDS011;14298;50.900;4.648;2024-02-26T11:54:02;3.40;;;3.13;;
26686;SDS011;14298;50.900;4.648;2024-02-26T11:56:30;3.27;;;2.97;;
26686;SDS011;14298;50.900;4.648;2024-02-26T11:59:01;2.70;;;2.50;;
26686;SDS011;14298;50.900;4.648;2024-02-26T12:01:36;2.20;;;2.10;;
26686;SDS011;14298;50.900;4.648;2024-02-26T12:04:05;3.03;;;2.83;;
26686;SDS011;14298;50.900;4.648;2024-02-26T12:06:41;3.23;;;3.03;;
26686;SDS011;14298;50.900;4.648;2024-02-26T12:09:09;3.30;;;3.10;;
26686;SDS011;14298;50.900;4.648;2024-02-26T12:11:38;3.50;;;3.23;;
26686;SDS011;14298;50.900;4.648;2024-02-26T12:14:09;2.90;;;2.77;;
26686;SDS011;14298;50.900;4.648;2024-02-26T12:16:40;3.27;;;2.97;;
26686;SDS011;14298;50.900;4.648;2024-02-26T12:19:10;3.77;;;3.57;;
26686;SDS011;14298;50.900;4.648;2024-02-26T12:21:38;3.03;;;2.50;;
26686;SDS011;14298;50.900;4.648;2024-02-26T12:24:07;2.50;;;2.30;;
26686;SDS011;14298;50.900;4.648;2024-02-26T12:26:36;1.47;;;1.33;;
26686;SDS011;14298;50.900;4.648;2024-02-26T12:29:04;2.10;;;2.00;;
26686;SDS011;14298;50.900;4.648;2024-02-26T12:31:32;2.27;;;2.17;;
26686;SDS011;14298;50.900;4.648;2024-02-26T12:34:00;1.93;;;1.70;;
26686;SDS011;14298;50.900;4.648;2024-02-26T12:36:28;1.70;;;1.60;;
26686;SDS011;14298;50.900;4.648;2024-02-26T12:38:56;3.47;;;2.47;;
26686;SDS011;14298;50.900;4.648;2024-02-26T12:41:25;1.70;;;1.53;;
26686;SDS011;14298;50.900;4.648;2024-02-26T12:43:54;1.83;;;1.73;;
26686;SDS011;14298;50.900;4.648;2024-02-26T12:46:23;2.10;;;1.33;;
26686;SDS011;14298;50.900;4.648;2024-02-26T12:48:51;1.80;;;1.70;;
26686;SDS011;14298;50.900;4.648;2024-02-26T12:51:21;2.13;;;2.03;;
26686;SDS011;14298;50.900;4.648;2024-02-26T12:53:49;2.40;;;2.20;;
26686;SDS011;14298;50.900;4.648;2024-02-26T12:56:19;1.73;;;1.63;;
26686;SDS011;14298;50.900;4.648;2024-02-26T12:58:47;1.80;;;1.70;;
26686;SDS011;14298;50.900;4.648;2024-02-26T13:01:16;1.60;;;1.50;;
26686;SDS011;14298;50.900;4.648;2024-02-26T13:03:45;3.27;;;2.67;;
26686;SDS011;14298;50.900;4.648;2024-02-26T13:06:13;2.83;;;2.37;;
26686;SDS011;14298;50.900;4.648;2024-02-26T13:08:42;1.77;;;1.67;;
26686;SDS011;14298;50.900;4.648;2024-02-26T13:11:10;3.07;;;2.10;;
26686;SDS011;14298;50.900;4.648;2024-02-26T13:13:38;2.27;;;2.17;;
26686;SDS011;14298;50.900;4.648;2024-02-26T13:16:07;4.03;;;2.57;;
26686;SDS011;14298;50.900;4.648;2024-02-26T13:18:35;3.57;;;3.37;;
26686;SDS011;14298;50.900;4.648;2024-02-26T13:21:13;3.17;;;2.97;;
26686;SDS011;14298;50.900;4.648;2024-02-26T13:23:42;2.10;;;2.00;;
26686;SDS011;14298;50.900;4.648;2024-02-26T13:26:11;4.07;;;3.77;;
26686;SDS011;14298;50.900;4.648;2024-02-26T13:28:40;3.73;;;3.43;;
26686;SDS011;14298;50.900;4.648;2024-02-26T13:31:08;2.87;;;2.67;;
26686;SDS011;14298;50.900;4.648;2024-02-26T13:33:36;2.83;;;2.63;;
26686;SDS011;14298;50.900;4.648;2024-02-26T13:36:04;3.70;;;3.40;;
26686;SDS011;14298;50.900;4.648;2024-02-26T13:38:32;2.97;;;2.87;;
26686;SDS011;14298;50.900;4.648;2024-02-26T13:41:00;3.50;;;3.30;;
26686;SDS011;14298;50.900;4.648;2024-02-26T13:43:28;3.97;;;3.77;;
26686;SDS011;14298;50.900;4.648;2024-02-26T13:45:56;2.67;;;2.53;;
26686;SDS011;14298;50.900;4.648;2024-02-26T13:48:24;3.97;;;3.77;;
26686;SDS011;14298;50.900;4.648;2024-02-26T13:50:53;3.37;;;3.17;;
26686;SDS011;14298;50.900;4.648;2024-02-26T13:53:21;3.23;;;2.93;;
26686;SDS011;14298;50.900;4.648;2024-02-26T13:55:51;3.87;;;3.57;;
26686;SDS011;14298;50.900;4.648;2024-02-26T13:58:19;3.40;;;3.13;;
26686;SDS011;14298;50.900;4.648;2024-02-26T14:00:48;3.57;;;3.37;;
26686;SDS011;14298;50.900;4.648;2024-02-26T14:03:17;3.17;;;2.83;;
26686;SDS011;14298;50.900;4.648;2024-02-26T14:05:46;7.37;;;3.63;;
26686;SDS011;14298;50.900;4.648;2024-02-26T14:08:14;2.07;;;1.87;;
26686;SDS011;14298;50.900;4.648;2024-02-26T14:10:42;2.37;;;2.17;;
26686;SDS011;14298;50.900;4.648;2024-02-26T14:13:11;3.60;;;3.27;;
26686;SDS011;14298;50.900;4.648;2024-02-26T14:15:39;3.20;;;3.00;;
26686;SDS011;14298;50.900;4.648;2024-02-26T14:18:07;4.53;;;4.13;;
26686;SDS011;14298;50.900;4.648;2024-02-26T14:20:35;5.27;;;4.87;;
26686;SDS011;14298;50.900;4.648;2024-02-26T14:23:03;5.27;;;3.87;;
26686;SDS011;14298;50.900;4.648;2024-02-26T14:25:31;2.70;;;2.50;;
26686;SDS011;14298;50.900;4.648;2024-02-26T14:27:59;4.23;;;3.27;;
26686;SDS011;14298;50.900;4.648;2024-02-26T14:30:27;3.27;;;3.07;;
26686;SDS011;14298;50.900;4.648;2024-02-26T14:32:55;5.07;;;2.73;;
26686;SDS011;14298;50.900;4.648;2024-02-26T14:35:23;4.13;;;2.97;;
26686;SDS011;14298;50.900;4.648;2024-02-26T14:37:53;7.93;;;4.57;;
26686;SDS011;14298;50.900;4.648;2024-02-26T14:40:21;3.60;;;3.30;;
26686;SDS011;14298;50.900;4.648;2024-02-26T14:42:49;3.73;;;3.20;;
26686;SDS011;14298;50.900;4.648;2024-02-26T14:45:17;3.13;;;2.53;;
26686;SDS011;14298;50.900;4.648;2024-02-26T14:47:46;3.40;;;3.20;;
26686;SDS011;14298;50.900;4.648;2024-02-26T14:50:14;4.17;;;3.07;;
26686;SDS011;14298;50.900;4.648;2024-02-26T14:52:42;3.60;;;3.30;;
26686;SDS011;14298;50.900;4.648;2024-02-26T14:55:10;3.67;;;2.53;;
26686;SDS011;14298;50.900;4.648;2024-02-26T14:57:38;3.43;;;3.00;;
26686;SDS011;14298;50.900;4.648;2024-02-26T15:00:06;2.63;;;2.43;;
26686;SDS011;14298;50.900;4.648;2024-02-26T15:02:34;3.17;;;2.83;;
26686;SDS011;14298;50.900;4.648;2024-02-26T15:05:03;2.23;;;2.03;;
26686;SDS011;14298;50.900;4.648;2024-02-26T15:07:31;4.53;;;3.47;;
26686;SDS011;14298;50.900;4.648;2024-02-26T15:09:59;3.73;;;3.43;;
26686;SDS011;14298;50.900;4.648;2024-02-26T15:12:27;6.73;;;3.03;;
26686;SDS011;14298;50.900;4.648;2024-02-26T15:14:55;2.03;;;1.93;;
26686;SDS011;14298;50.900;4.648;2024-02-26T15:17:24;3.07;;;2.87;;
26686;SDS011;14298;50.900;4.648;2024-02-26T15:19:53;1.97;;;1.87;;
26686;SDS011;14298;50.900;4.648;2024-02-26T15:22:23;4.63;;;3.37;;
26686;SDS011;14298;50.900;4.648;2024-02-26T15:24:51;3.60;;;3.30;;
26686;SDS011;14298;50.900;4.648;2024-02-26T15:27:25;4.07;;;2.93;;
26686;SDS011;14298;50.900;4.648;2024-02-26T15:29:53;3.23;;;2.43;;
26686;SDS011;14298;50.900;4.648;2024-02-26T15:32:23;5.13;;;3.23;;
26686;SDS011;14298;50.900;4.648;2024-02-26T15:34:51;2.10;;;2.00;;
26686;SDS011;14298;50.900;4.648;2024-02-26T15:37:19;2.80;;;2.63;;
26686;SDS011;14298;50.900;4.648;2024-02-26T15:39:47;7.00;;;2.87;;
26686;SDS011;14298;50.900;4.648;2024-02-26T15:42:15;2.07;;;1.87;;